Time;durP1;ratioP1;P1;durP2;ratioP2;P2;SDS_P1;SDS_P2;PMS_P1;PMS_P2;Temp;Humidity;BMP_temperature;BMP_pressure;BME280_temperature;BME280_humidity;BME280_pressure;Samples;Min_cycle;Max_cycle;Signal;HPM_P1;HPM_P2
2022/10/16 00:01:41;;;;;;;7.10;3.50;;;;;;;;;;5016590;28;20185;-79
2022/10/16 00:04:07;;;;;;;5.67;3.70;;;;;;;;;;5031930;28;20188;-79
2022/10/16 00:06:33;;;;;;;10.03;4.27;;;;;;;;;;5047622;28;20263;-79
2022/10/16 00:09:00;;;;;;;7.23;4.20;;;;;;;;;;5015640;28;20247;-79
2022/10/16 00:11:27;;;;;;;9.60;4.20;;;;;;;;;;5016010;28;20189;-79
2022/10/16 00:13:56;;;;;;;7.47;4.07;;;;;;;;;;5016497;28;20268;-79
2022/10/16 00:16:22;;;;;;;5.90;3.77;;;;;;;;;;5016872;28;20173;-79
2022/10/16 00:18:48;;;;;;;7.10;3.20;;;;;;;;;;5016379;28;20193;-88
2022/10/16 00:21:16;;;;;;;7.73;3.73;;;;;;;;;;5015079;28;20213;-88
2022/10/16 00:23:43;;;;;;;7.17;3.40;;;;;;;;;;5005168;28;20193;-87
2022/10/16 00:26:11;;;;;;;6.60;3.63;;;;;;;;;;5010784;28;20250;-78
2022/10/16 00:28:37;;;;;;;4.63;3.93;;;;;;;;;;5048132;28;20186;-79
2022/10/16 00:31:08;;;;;;;8.73;4.00;;;;;;;;;;5030814;28;20204;-79
2022/10/16 00:33:34;;;;;;;6.17;3.90;;;;;;;;;;5015270;28;20205;-79
2022/10/16 00:36:00;;;;;;;10.40;4.00;;;;;;;;;;5045079;28;20261;-79
2022/10/16 00:38:26;;;;;;;6.93;4.13;;;;;;;;;;5014380;28;20178;-79
2022/10/16 00:40:52;;;;;;;8.43;4.50;;;;;;;;;;5016194;28;20173;-79
2022/10/16 00:43:38;;;;;;;8.80;4.40;;;;;;;;;;5031004;28;20189;-79
2022/10/16 00:46:05;;;;;;;9.13;4.30;;;;;;;;;;5013345;28;20177;-79
2022/10/16 00:48:31;;;;;;;8.33;4.43;;;;;;;;;;5014812;28;20182;-79
2022/10/16 00:50:58;;;;;;;11.57;4.70;;;;;;;;;;5047933;28;20181;-79
2022/10/16 00:53:25;;;;;;;8.80;4.83;;;;;;;;;;5014790;28;20236;-87
2022/10/16 00:55:52;;;;;;;11.53;5.20;;;;;;;;;;5014871;28;20178;-87
2022/10/16 00:58:18;;;;;;;9.87;4.67;;;;;;;;;;5015780;28;20182;-79
2022/10/16 01:00:44;;;;;;;6.53;4.50;;;;;;;;;;5047497;28;20205;-79
2022/10/16 01:03:27;;;;;;;10.10;5.00;;;;;;;;;;5031188;28;20255;-79
2022/10/16 01:06:14;;;;;;;7.40;5.23;;;;;;;;;;5015568;28;20261;-79
2022/10/16 01:08:59;;;;;;;9.37;4.73;;;;;;;;;;4995413;28;20284;-79
2022/10/16 01:11:28;;;;;;;6.60;4.73;;;;;;;;;;5048274;28;20189;-79
2022/10/16 01:13:56;;;;;;;7.57;5.20;;;;;;;;;;5014383;28;20212;-79
2022/10/16 01:16:28;;;;;;;10.23;5.20;;;;;;;;;;5014055;28;20177;-87
2022/10/16 01:21:32;;;;;;;7.07;5.00;;;;;;;;;;5052462;28;20212;-78
2022/10/16 01:24:18;;;;;;;8.43;5.23;;;;;;;;;;5046543;28;20219;-76
2022/10/16 01:27:03;;;;;;;6.27;5.37;;;;;;;;;;5050331;28;20196;-76
2022/10/16 01:29:47;;;;;;;9.10;5.27;;;;;;;;;;5052715;28;20187;-76
2022/10/16 01:32:19;;;;;;;8.43;5.33;;;;;;;;;;5044079;28;20199;-76
2022/10/16 01:34:54;;;;;;;8.57;5.47;;;;;;;;;;5048021;28;20214;-76
2022/10/16 01:37:23;;;;;;;8.43;5.17;;;;;;;;;;5039575;28;20191;-76
2022/10/16 01:39:50;;;;;;;8.83;5.60;;;;;;;;;;5052183;28;20270;-76
2022/10/16 01:42:19;;;;;;;9.77;5.37;;;;;;;;;;5049004;28;20180;-76
2022/10/16 01:44:46;;;;;;;7.43;5.60;;;;;;;;;;5067146;28;20187;-76
2022/10/16 01:47:13;;;;;;;7.73;5.70;;;;;;;;;;5045482;28;20234;-76
2022/10/16 01:49:40;;;;;;;6.50;5.90;;;;;;;;;;5035653;28;20242;-79
2022/10/16 01:52:09;;;;;;;9.57;5.80;;;;;;;;;;5052843;28;20199;-87
2022/10/16 01:54:37;;;;;;;10.40;5.90;;;;;;;;;;5045771;28;20240;-88
2022/10/16 01:57:05;;;;;;;6.43;5.50;;;;;;;;;;5049752;28;20180;-87
2022/10/16 01:59:32;;;;;;;7.50;5.40;;;;;;;;;;5058081;28;20187;-76
2022/10/16 02:02:04;;;;;;;6.10;4.93;;;;;;;;;;5053398;28;20176;-76
2022/10/16 02:04:47;;;;;;;6.33;4.47;;;;;;;;;;5052838;28;20195;-87
2022/10/16 02:07:13;;;;;;;8.17;5.17;;;;;;;;;;5053238;28;20180;-88
2022/10/16 02:09:39;;;;;;;6.03;4.53;;;;;;;;;;5039563;28;20192;-87
2022/10/16 02:12:19;;;;;;;7.50;5.10;;;;;;;;;;5052605;28;20175;-87
2022/10/16 02:14:45;;;;;;;6.70;4.80;;;;;;;;;;5048232;28;20207;-87
2022/10/16 02:17:16;;;;;;;7.53;4.33;;;;;;;;;;5052879;28;20188;-87
2022/10/16 02:19:42;;;;;;;9.33;4.50;;;;;;;;;;5056169;28;20288;-87
2022/10/16 02:22:10;;;;;;;5.20;4.13;;;;;;;;;;5051160;28;20260;-80
2022/10/16 02:24:54;;;;;;;7.17;4.57;;;;;;;;;;5053512;28;20179;-80
2022/10/16 02:27:26;;;;;;;7.07;4.00;;;;;;;;;;5053817;28;20186;-80
2022/10/16 02:29:58;;;;;;;4.87;3.93;;;;;;;;;;5052421;28;20184;-80
2022/10/16 02:32:25;;;;;;;4.73;3.97;;;;;;;;;;5052765;28;20180;-80
2022/10/16 02:34:52;;;;;;;6.63;4.33;;;;;;;;;;5053518;28;20219;-80
2022/10/16 02:37:18;;;;;;;3.73;3.43;;;;;;;;;;5024304;28;20314;-80
2022/10/16 02:39:44;;;;;;;5.70;3.97;;;;;;;;;;5049004;28;20188;-80
2022/10/16 02:42:14;;;;;;;4.10;3.70;;;;;;;;;;5049634;28;20181;-79
2022/10/16 02:44:40;;;;;;;4.53;3.50;;;;;;;;;;5055853;28;20181;-79
2022/10/16 02:47:07;;;;;;;6.67;3.70;;;;;;;;;;5052997;28;20183;-79
2022/10/16 02:49:33;;;;;;;6.37;3.67;;;;;;;;;;5041180;28;20199;-76
2022/10/16 02:51:59;;;;;;;5.73;3.30;;;;;;;;;;5035910;28;20180;-76
2022/10/16 02:54:25;;;;;;;4.53;3.60;;;;;;;;;;5042901;28;20211;-78
2022/10/16 02:56:51;;;;;;;5.37;3.43;;;;;;;;;;5047418;28;20180;-78
2022/10/16 02:59:17;;;;;;;6.03;3.20;;;;;;;;;;5033433;28;20180;-78
2022/10/16 03:01:43;;;;;;;5.47;3.33;;;;;;;;;;5034289;28;20183;-78
2022/10/16 03:04:09;;;;;;;4.47;3.07;;;;;;;;;;5041166;28;20184;-78
2022/10/16 03:06:35;;;;;;;7.03;3.67;;;;;;;;;;5054866;28;20255;-78
2022/10/16 03:09:01;;;;;;;5.47;3.37;;;;;;;;;;5055913;28;20180;-78
2022/10/16 03:11:28;;;;;;;4.77;3.80;;;;;;;;;;5030255;28;20191;-80
2022/10/16 03:13:54;;;;;;;5.70;3.27;;;;;;;;;;5043041;28;20294;-80
2022/10/16 03:16:20;;;;;;;4.77;3.50;;;;;;;;;;5058169;28;20180;-80
2022/10/16 03:18:49;;;;;;;4.90;3.63;;;;;;;;;;5032912;28;20192;-80
2022/10/16 03:21:15;;;;;;;3.87;3.37;;;;;;;;;;5048549;28;20232;-86
2022/10/16 03:23:41;;;;;;;4.40;3.27;;;;;;;;;;5055752;28;20199;-87
2022/10/16 03:26:07;;;;;;;5.27;3.27;;;;;;;;;;5032059;28;20252;-87
2022/10/16 03:28:33;;;;;;;5.17;3.60;;;;;;;;;;5043552;28;20193;-87
2022/10/16 03:30:59;;;;;;;6.83;3.60;;;;;;;;;;5055639;28;20183;-87
2022/10/16 03:33:25;;;;;;;5.43;2.90;;;;;;;;;;5056466;28;20222;-87
2022/10/16 03:35:52;;;;;;;4.37;3.20;;;;;;;;;;5039506;28;20184;-87
2022/10/16 03:38:18;;;;;;;3.67;2.97;;;;;;;;;;5039492;28;20188;-87
2022/10/16 03:40:45;;;;;;;3.83;2.80;;;;;;;;;;5035712;28;20185;-87
2022/10/16 03:43:11;;;;;;;5.53;2.90;;;;;;;;;;5034567;28;20216;-87
2022/10/16 03:45:36;;;;;;;3.70;2.90;;;;;;;;;;5055162;28;20246;-78
2022/10/16 03:48:03;;;;;;;6.93;3.10;;;;;;;;;;5036188;28;20184;-78
2022/10/16 03:50:29;;;;;;;3.13;2.80;;;;;;;;;;5051845;28;20184;-78
2022/10/16 03:52:55;;;;;;;6.17;2.77;;;;;;;;;;5045764;28;20192;-78
2022/10/16 03:55:21;;;;;;;3.63;3.10;;;;;;;;;;5055142;28;20212;-78
2022/10/16 03:57:47;;;;;;;3.73;2.70;;;;;;;;;;5056358;28;20192;-78
2022/10/16 04:00:13;;;;;;;3.40;2.60;;;;;;;;;;5057210;28;20230;-78
2022/10/16 04:02:39;;;;;;;4.37;3.20;;;;;;;;;;5051856;28;20271;-76
2022/10/16 04:05:05;;;;;;;4.37;3.20;;;;;;;;;;5054773;28;20281;-76
2022/10/16 04:07:31;;;;;;;3.30;2.90;;;;;;;;;;5056217;28;20270;-76
2022/10/16 04:09:58;;;;;;;3.97;2.80;;;;;;;;;;5036441;28;20215;-76
2022/10/16 04:12:24;;;;;;;3.63;2.80;;;;;;;;;;5049184;28;20192;-76
2022/10/16 04:14:50;;;;;;;4.57;3.00;;;;;;;;;;5054826;28;20212;-76
2022/10/16 04:17:16;;;;;;;6.13;3.23;;;;;;;;;;5038249;28;20274;-77
2022/10/16 04:19:42;;;;;;;5.20;2.83;;;;;;;;;;5051424;28;20285;-78
2022/10/16 04:22:08;;;;;;;3.77;2.70;;;;;;;;;;5055249;28;20182;-78
2022/10/16 04:24:35;;;;;;;4.40;2.50;;;;;;;;;;5051365;28;20266;-78
2022/10/16 04:27:01;;;;;;;3.87;2.53;;;;;;;;;;5044437;28;20189;-78
2022/10/16 04:29:27;;;;;;;5.63;2.60;;;;;;;;;;5049918;28;20187;-78
2022/10/16 04:31:53;;;;;;;4.00;2.80;;;;;;;;;;5055613;28;20277;-78
2022/10/16 04:34:19;;;;;;;4.13;2.80;;;;;;;;;;5038222;28;20223;-76
2022/10/16 04:36:47;;;;;;;4.60;2.80;;;;;;;;;;5054644;28;20180;-76
2022/10/16 04:39:13;;;;;;;4.93;2.93;;;;;;;;;;5054501;28;20180;-76
2022/10/16 04:41:39;;;;;;;4.60;2.60;;;;;;;;;;5039000;28;20192;-76
2022/10/16 04:44:05;;;;;;;5.57;2.90;;;;;;;;;;5053715;28;20209;-76
2022/10/16 04:46:31;;;;;;;3.80;2.80;;;;;;;;;;5054665;28;20283;-76
2022/10/16 04:48:57;;;;;;;4.30;2.80;;;;;;;;;;5047340;28;20194;-76
2022/10/16 04:51:24;;;;;;;3.23;2.93;;;;;;;;;;5030137;28;20196;-76
2022/10/16 04:53:50;;;;;;;3.27;2.70;;;;;;;;;;5037616;28;20215;-76
2022/10/16 04:56:16;;;;;;;5.27;3.17;;;;;;;;;;5049989;28;20238;-76
2022/10/16 04:58:42;;;;;;;3.73;3.10;;;;;;;;;;5042039;28;20188;-76
2022/10/16 05:01:08;;;;;;;6.23;3.10;;;;;;;;;;5051010;28;20233;-76
2022/10/16 05:03:34;;;;;;;5.00;3.00;;;;;;;;;;5054037;28;20191;-76
2022/10/16 05:06:00;;;;;;;4.13;2.90;;;;;;;;;;5054729;28;20187;-76
2022/10/16 05:08:26;;;;;;;4.13;3.03;;;;;;;;;;5048437;28;20192;-76
2022/10/16 05:10:52;;;;;;;4.20;2.90;;;;;;;;;;5046469;28;20199;-80
2022/10/16 05:13:18;;;;;;;3.80;2.57;;;;;;;;;;5053795;28;20188;-80
2022/10/16 05:15:48;;;;;;;4.17;2.80;;;;;;;;;;5053745;28;20187;-79
2022/10/16 05:18:14;;;;;;;4.73;2.90;;;;;;;;;;5069910;28;20191;-79
2022/10/16 05:20:40;;;;;;;8.07;2.87;;;;;;;;;;5033668;28;20235;-80
2022/10/16 05:23:06;;;;;;;3.60;3.10;;;;;;;;;;5045926;28;20180;-80
2022/10/16 05:25:32;;;;;;;4.30;2.83;;;;;;;;;;5036412;28;20204;-86
2022/10/16 05:27:58;;;;;;;6.37;3.10;;;;;;;;;;5053452;28;20188;-87
2022/10/16 05:30:24;;;;;;;4.77;3.07;;;;;;;;;;5049336;28;20208;-87
2022/10/16 05:32:51;;;;;;;3.23;2.77;;;;;;;;;;5026362;28;20211;-87
2022/10/16 05:35:18;;;;;;;5.10;2.90;;;;;;;;;;5054400;28;20208;-80
2022/10/16 05:37:44;;;;;;;5.97;3.20;;;;;;;;;;5044262;28;20184;-80
2022/10/16 05:40:10;;;;;;;4.10;3.03;;;;;;;;;;5028894;28;20217;-76
2022/10/16 05:42:37;;;;;;;8.07;3.10;;;;;;;;;;5032570;28;20191;-77
2022/10/16 05:45:03;;;;;;;5.77;3.43;;;;;;;;;;5036946;28;20253;-76
2022/10/16 05:47:29;;;;;;;7.57;3.53;;;;;;;;;;5036153;28;20219;-77
2022/10/16 05:49:55;;;;;;;6.17;2.97;;;;;;;;;;5053705;28;20188;-76
2022/10/16 05:52:21;;;;;;;4.93;3.67;;;;;;;;;;5052406;28;20203;-76
2022/10/16 05:54:47;;;;;;;4.00;3.60;;;;;;;;;;5047893;28;20232;-76
2022/10/16 05:57:13;;;;;;;5.13;3.40;;;;;;;;;;5036192;28;20184;-76
2022/10/16 05:59:39;;;;;;;7.27;3.57;;;;;;;;;;5053833;28;20196;-76
2022/10/16 06:02:05;;;;;;;6.70;3.47;;;;;;;;;;5027666;28;20243;-76
2022/10/16 06:04:31;;;;;;;7.90;3.37;;;;;;;;;;5052820;28;20202;-76
2022/10/16 06:07:04;;;;;;;5.57;3.53;;;;;;;;;;5058518;28;20278;-76
2022/10/16 06:09:30;;;;;;;5.93;3.37;;;;;;;;;;5033028;28;20343;-76
2022/10/16 06:11:56;;;;;;;5.20;3.77;;;;;;;;;;5033350;28;20204;-77
2022/10/16 06:14:22;;;;;;;6.83;3.33;;;;;;;;;;5043837;28;20284;-87
2022/10/16 06:16:48;;;;;;;6.57;3.67;;;;;;;;;;5036556;28;20202;-86
2022/10/16 06:19:16;;;;;;;4.13;3.40;;;;;;;;;;5053577;28;20180;-86
2022/10/16 06:21:42;;;;;;;4.87;3.80;;;;;;;;;;5036438;28;20192;-86
2022/10/16 06:24:08;;;;;;;6.10;3.70;;;;;;;;;;5034324;28;20192;-87
2022/10/16 06:26:34;;;;;;;4.03;3.50;;;;;;;;;;5053527;28;20186;-87
2022/10/16 06:29:01;;;;;;;6.67;3.80;;;;;;;;;;5047726;28;20299;-87
2022/10/16 06:31:30;;;;;;;4.87;3.70;;;;;;;;;;5054096;28;20180;-78
2022/10/16 06:33:57;;;;;;;6.33;3.57;;;;;;;;;;5053652;28;20222;-78
2022/10/16 06:36:23;;;;;;;6.57;3.70;;;;;;;;;;5035583;28;20191;-79
2022/10/16 06:38:49;;;;;;;7.27;3.40;;;;;;;;;;5053602;28;20171;-80
2022/10/16 06:41:16;;;;;;;4.67;3.30;;;;;;;;;;5053294;28;20184;-80
2022/10/16 06:43:44;;;;;;;4.93;3.20;;;;;;;;;;5053702;28;20191;-81
2022/10/16 06:46:11;;;;;;;5.67;3.50;;;;;;;;;;5053660;28;20275;-81
2022/10/16 06:48:37;;;;;;;4.77;3.30;;;;;;;;;;5051970;28;20188;-81
2022/10/16 06:51:03;;;;;;;5.47;3.13;;;;;;;;;;5036289;28;20255;-81
2022/10/16 06:53:31;;;;;;;4.90;3.57;;;;;;;;;;5052422;28;20257;-81
2022/10/16 06:55:57;;;;;;;5.13;3.30;;;;;;;;;;5075213;28;20218;-81
2022/10/16 06:58:23;;;;;;;4.90;3.47;;;;;;;;;;5071748;28;20184;-81
2022/10/16 07:00:55;;;;;;;6.50;3.70;;;;;;;;;;5052768;28;20182;-81
2022/10/16 07:03:21;;;;;;;6.80;3.30;;;;;;;;;;5045895;28;20179;-81
2022/10/16 07:05:47;;;;;;;6.17;3.07;;;;;;;;;;5053000;28;20259;-81
2022/10/16 07:08:16;;;;;;;6.20;3.30;;;;;;;;;;5052425;28;20184;-81
2022/10/16 07:10:42;;;;;;;4.87;3.20;;;;;;;;;;5052464;28;20180;-81
2022/10/16 07:13:08;;;;;;;5.73;3.13;;;;;;;;;;5059717;28;20187;-81
2022/10/16 07:15:37;;;;;;;5.50;3.33;;;;;;;;;;5052163;28;20207;-81
2022/10/16 07:18:03;;;;;;;4.63;3.30;;;;;;;;;;5047226;28;20172;-81
2022/10/16 07:20:29;;;;;;;4.80;3.33;;;;;;;;;;5053600;28;20226;-81
2022/10/16 07:22:58;;;;;;;6.10;3.10;;;;;;;;;;5048626;28;20175;-88
2022/10/16 07:25:24;;;;;;;4.73;3.17;;;;;;;;;;5052206;28;20275;-88
2022/10/16 07:27:50;;;;;;;6.47;3.40;;;;;;;;;;5035079;28;20192;-89
2022/10/16 07:30:16;;;;;;;5.57;3.70;;;;;;;;;;5051716;28;20190;-88
2022/10/16 07:32:42;;;;;;;7.03;3.50;;;;;;;;;;5074018;28;20199;-88
2022/10/16 07:35:08;;;;;;;6.63;3.50;;;;;;;;;;5044023;28;20204;-88
2022/10/16 07:37:34;;;;;;;7.25;3.72;;;;;;;;;;5051658;28;20400;-81
2022/10/16 07:40:00;;;;;;;6.50;3.50;;;;;;;;;;5053834;28;20183;-81
2022/10/16 07:42:28;;;;;;;6.90;3.53;;;;;;;;;;5056295;28;20168;-81
2022/10/16 07:44:54;;;;;;;4.10;3.33;;;;;;;;;;5057179;28;20184;-81
2022/10/16 07:47:20;;;;;;;7.03;3.77;;;;;;;;;;5056053;28;20175;-81
2022/10/16 07:49:46;;;;;;;3.80;3.40;;;;;;;;;;5055911;28;20180;-88
2022/10/16 07:52:12;;;;;;;6.57;3.50;;;;;;;;;;5039522;28;20258;-88
2022/10/16 07:54:38;;;;;;;5.13;3.17;;;;;;;;;;5056034;28;20211;-80
2022/10/16 07:57:04;;;;;;;5.13;3.50;;;;;;;;;;5055877;28;20183;-80
2022/10/16 07:59:30;;;;;;;7.80;3.67;;;;;;;;;;5055866;28;20187;-80
2022/10/16 08:01:56;;;;;;;6.77;3.50;;;;;;;;;;5035118;28;20188;-80
2022/10/16 08:04:22;;;;;;;5.50;3.33;;;;;;;;;;5067308;28;20203;-81
2022/10/16 08:06:49;;;;;;;7.90;3.63;;;;;;;;;;5036039;28;20180;-81
2022/10/16 08:09:15;;;;;;;9.30;3.53;;;;;;;;;;5055480;28;20291;-81
2022/10/16 08:11:40;;;;;;;4.97;3.10;;;;;;;;;;5055826;28;20206;-77
2022/10/16 08:14:07;;;;;;;6.13;3.20;;;;;;;;;;5055543;28;20317;-77
2022/10/16 08:16:33;;;;;;;6.47;3.10;;;;;;;;;;5056103;28;20267;-77
2022/10/16 08:18:58;;;;;;;7.60;3.30;;;;;;;;;;5056407;28;20255;-77
2022/10/16 08:21:25;;;;;;;6.73;3.00;;;;;;;;;;5055187;28;20254;-78
2022/10/16 08:23:51;;;;;;;5.03;2.60;;;;;;;;;;5038615;28;20187;-78
2022/10/16 08:26:18;;;;;;;9.17;3.33;;;;;;;;;;5053518;28;20184;-78
2022/10/16 08:28:45;;;;;;;7.13;2.90;;;;;;;;;;5048130;28;20198;-81
2022/10/16 08:31:11;;;;;;;7.37;2.70;;;;;;;;;;5072823;28;20188;-81
2022/10/16 08:33:37;;;;;;;7.37;2.83;;;;;;;;;;5078708;28;20202;-82
2022/10/16 08:36:04;;;;;;;4.73;2.67;;;;;;;;;;5038069;28;20176;-81
2022/10/16 08:38:30;;;;;;;6.10;2.80;;;;;;;;;;5052016;28;20191;-82
2022/10/16 08:41:14;;;;;;;5.53;3.37;;;;;;;;;;5054930;28;20183;-82
2022/10/16 08:44:03;;;;;;;5.63;3.13;;;;;;;;;;5056041;28;20178;-81
2022/10/16 08:46:35;;;;;;;6.13;3.27;;;;;;;;;;5055094;28;20270;-78
2022/10/16 08:49:03;;;;;;;6.20;2.83;;;;;;;;;;5054780;28;20188;-78
2022/10/16 08:51:33;;;;;;;7.43;2.80;;;;;;;;;;5053746;28;20246;-78
2022/10/16 08:54:02;;;;;;;6.47;2.90;;;;;;;;;;5054477;28;20260;-78
2022/10/16 08:56:28;;;;;;;5.07;2.90;;;;;;;;;;5055810;28;20225;-78
2022/10/16 08:58:54;;;;;;;7.60;2.67;;;;;;;;;;5054982;28;20180;-79
2022/10/16 09:01:22;;;;;;;7.33;2.50;;;;;;;;;;5038153;28;20325;-78
2022/10/16 09:03:54;;;;;;;6.93;2.47;;;;;;;;;;5054364;28;20237;-79
2022/10/16 09:06:20;;;;;;;7.33;2.53;;;;;;;;;;5054248;28;20179;-78
2022/10/16 09:08:51;;;;;;;3.33;2.20;;;;;;;;;;5055097;28;20262;-78
2022/10/16 09:11:32;;;;;;;5.30;2.43;;;;;;;;;;5054386;28;20242;-78
2022/10/16 09:14:07;;;;;;;6.50;2.60;;;;;;;;;;5054459;28;20297;-78
2022/10/16 09:17:02;;;;;;;5.27;2.27;;;;;;;;;;5055533;28;20186;-78
2022/10/16 09:19:42;;;;;;;9.40;2.67;;;;;;;;;;5001769;28;20253;-80
2022/10/16 09:22:14;;;;;;;3.60;2.30;;;;;;;;;;5051119;28;20263;-82
2022/10/16 09:24:40;;;;;;;5.90;2.03;;;;;;;;;;5066333;28;20187;-82
2022/10/16 09:27:10;;;;;;;8.03;2.27;;;;;;;;;;5037768;28;20196;-82
2022/10/16 09:29:36;;;;;;;5.77;2.10;;;;;;;;;;5054004;28;20176;-82
2022/10/16 09:32:23;;;;;;;5.13;2.27;;;;;;;;;;5055213;28;20195;-82
2022/10/16 09:34:51;;;;;;;10.37;2.27;;;;;;;;;;5054383;22;20234;-88
2022/10/16 09:37:22;;;;;;;7.77;2.47;;;;;;;;;;5025596;28;20192;-78
2022/10/16 09:39:49;;;;;;;6.73;2.50;;;;;;;;;;5017676;28;20193;-78
2022/10/16 09:42:31;;;;;;;8.23;2.60;;;;;;;;;;5033329;28;20445;-78
2022/10/16 09:44:57;;;;;;;6.10;2.50;;;;;;;;;;5016453;28;20420;-78
2022/10/16 09:47:24;;;;;;;7.47;2.40;;;;;;;;;;5003644;28;20417;-79
2022/10/16 09:50:01;;;;;;;6.97;2.50;;;;;;;;;;5035818;28;20440;-78
2022/10/16 09:52:28;;;;;;;7.30;2.70;;;;;;;;;;5027083;28;20419;-80
2022/10/16 09:54:55;;;;;;;7.22;2.40;;;;;;;;;;5053605;28;20431;-80
2022/10/16 09:57:21;;;;;;;7.67;2.57;;;;;;;;;;5000685;28;20497;-80
2022/10/16 09:59:55;;;;;;;8.25;2.72;;;;;;;;;;5034643;28;20425;-80
2022/10/16 10:02:29;;;;;;;9.87;2.80;;;;;;;;;;5015499;28;20485;-79
2022/10/16 10:04:56;;;;;;;8.40;2.47;;;;;;;;;;5042963;28;20420;-79
2022/10/16 10:07:34;;;;;;;10.07;2.67;;;;;;;;;;5042038;28;20406;-89
2022/10/16 10:10:01;;;;;;;7.47;2.47;;;;;;;;;;5021624;28;20240;-89
2022/10/16 10:12:28;;;;;;;9.25;2.63;;;;;;;;;;5008362;28;20465;-89
2022/10/16 10:14:58;;;;;;;10.35;2.70;;;;;;;;;;5012385;28;20518;-78
2022/10/16 10:17:26;;;;;;;6.80;2.63;;;;;;;;;;5015689;28;20412;-78
2022/10/16 10:19:56;;;;;;;9.13;2.70;;;;;;;;;;5033092;28;20471;-78
2022/10/16 10:22:24;;;;;;;9.80;2.60;;;;;;;;;;5033472;28;20437;-78
2022/10/16 10:25:09;;;;;;;10.23;2.83;;;;;;;;;;5016577;28;20440;-78
2022/10/16 10:27:44;;;;;;;11.00;2.67;;;;;;;;;;5033644;28;20463;-78
2022/10/16 10:30:16;;;;;;;6.93;2.40;;;;;;;;;;5016802;28;20181;-78
2022/10/16 10:33:00;;;;;;;9.93;2.80;;;;;;;;;;5016225;28;20440;-78
2022/10/16 10:35:43;;;;;;;10.52;2.70;;;;;;;;;;5015915;28;20467;-78
2022/10/16 10:38:28;;;;;;;9.05;2.80;;;;;;;;;;5015527;28;20405;-78
2022/10/16 10:41:04;;;;;;;10.40;2.80;;;;;;;;;;5015764;28;20399;-82
2022/10/16 10:43:30;;;;;;;9.00;3.00;;;;;;;;;;5015574;28;20405;-82
2022/10/16 10:46:02;;;;;;;10.40;2.90;;;;;;;;;;5015577;28;20413;-82
2022/10/16 10:48:48;;;;;;;11.20;2.83;;;;;;;;;;5011951;28;20512;-82
2022/10/16 10:51:20;;;;;;;8.82;2.88;;;;;;;;;;5033191;28;20432;-82
2022/10/16 10:53:58;;;;;;;8.00;2.53;;;;;;;;;;5033072;28;20404;-82
2022/10/16 10:56:39;;;;;;;9.02;2.78;;;;;;;;;;5015859;28;20429;-82
2022/10/16 10:59:09;;;;;;;10.37;2.70;;;;;;;;;;5015676;28;20406;-82
2022/10/16 11:01:35;;;;;;;9.25;2.80;;;;;;;;;;5015540;28;20482;-83
2022/10/16 11:04:04;;;;;;;7.00;2.72;;;;;;;;;;5033111;28;20467;-82
2022/10/16 11:06:35;;;;;;;12.77;3.00;;;;;;;;;;5033103;28;20425;-82
2022/10/16 11:09:04;;;;;;;8.97;2.67;;;;;;;;;;5033091;28;20413;-82
2022/10/16 11:11:30;;;;;;;9.82;2.88;;;;;;;;;;5033214;28;20405;-82
2022/10/16 11:14:20;;;;;;;9.90;2.90;;;;;;;;;;5033407;28;20433;-79
2022/10/16 11:16:53;;;;;;;10.90;2.55;;;;;;;;;;5026748;28;20409;-78
2022/10/16 11:19:34;;;;;;;10.87;2.70;;;;;;;;;;5019983;28;20412;-78
2022/10/16 11:22:03;;;;;;;9.20;2.67;;;;;;;;;;5036843;28;20414;-78
2022/10/16 11:24:36;;;;;;;10.40;2.90;;;;;;;;;;5019148;28;20409;-79
2022/10/16 11:27:04;;;;;;;10.10;2.85;;;;;;;;;;5019411;28;20412;-78
2022/10/16 11:29:33;;;;;;;11.00;2.92;;;;;;;;;;5036789;28;20499;-78
2022/10/16 11:32:02;;;;;;;11.60;2.85;;;;;;;;;;5019095;28;20503;-78
2022/10/16 11:34:34;;;;;;;11.25;2.90;;;;;;;;;;5036436;28;20445;-78
2022/10/16 11:37:10;;;;;;;11.60;2.58;;;;;;;;;;5019446;28;20425;-78
2022/10/16 11:39:36;;;;;;;12.70;3.00;;;;;;;;;;5018988;28;20409;-78
2022/10/16 11:42:08;;;;;;;12.40;2.97;;;;;;;;;;5019138;28;20428;-78
2022/10/16 11:44:40;;;;;;;10.90;2.70;;;;;;;;;;5019118;28;20409;-78
2022/10/16 11:47:12;;;;;;;11.60;2.90;;;;;;;;;;5019401;28;20441;-78
2022/10/16 11:49:39;;;;;;;11.32;2.95;;;;;;;;;;5018918;28;20413;-82
2022/10/16 11:52:21;;;;;;;12.15;3.20;;;;;;;;;;5019156;28;20457;-78
2022/10/16 11:54:56;;;;;;;10.38;2.80;;;;;;;;;;5019175;28;20454;-78
2022/10/16 11:57:31;;;;;;;10.55;3.08;;;;;;;;;;5018686;28;20410;-78
2022/10/16 12:00:00;;;;;;;10.10;2.70;;;;;;;;;;5019401;28;20416;-78
2022/10/16 12:02:37;;;;;;;10.98;2.90;;;;;;;;;;5036227;28;20401;-78
2022/10/16 12:05:16;;;;;;;8.43;2.60;;;;;;;;;;5018548;28;20412;-80
2022/10/16 12:07:45;;;;;;;10.23;2.87;;;;;;;;;;5018602;28;20413;-80
2022/10/16 12:10:19;;;;;;;10.98;3.05;;;;;;;;;;5036267;28;20439;-80
2022/10/16 12:12:46;;;;;;;10.07;3.00;;;;;;;;;;5018232;28;20508;-80
2022/10/16 12:15:28;;;;;;;11.77;2.90;;;;;;;;;;5002725;28;20437;-80
2022/10/16 12:17:55;;;;;;;11.40;2.95;;;;;;;;;;5035735;28;20448;-80
2022/10/16 12:20:23;;;;;;;10.38;2.90;;;;;;;;;;5018347;28;20409;-80
2022/10/16 12:22:49;;;;;;;10.93;2.88;;;;;;;;;;5035813;28;20410;-77
2022/10/16 12:25:23;;;;;;;11.23;3.00;;;;;;;;;;5035364;28;20402;-79
2022/10/16 12:28:24;;;;;;;11.32;3.10;;;;;;;;;;5035090;28;20405;-78
2022/10/16 12:30:54;;;;;;;13.75;3.20;;;;;;;;;;4939586;29;20419;-78
2022/10/16 12:33:31;;;;;;;10.70;3.03;;;;;;;;;;5021767;28;20494;-78
2022/10/16 12:35:58;;;;;;;11.47;3.10;;;;;;;;;;5017828;28;20440;-82
2022/10/16 12:38:38;;;;;;;11.05;2.72;;;;;;;;;;5018155;28;20402;-90
2022/10/16 12:41:08;;;;;;;10.27;2.87;;;;;;;;;;5017912;28;20418;-90
2022/10/16 12:43:52;;;;;;;10.63;2.75;;;;;;;;;;5019141;28;20468;-90
2022/10/16 12:46:18;;;;;;;9.33;2.63;;;;;;;;;;5023621;28;20416;-89
2022/10/16 12:48:45;;;;;;;10.67;2.80;;;;;;;;;;5018576;28;20406;-90
2022/10/16 12:51:11;;;;;;;10.23;2.88;;;;;;;;;;5035279;28;20413;-90
2022/10/16 12:53:37;;;;;;;11.48;2.50;;;;;;;;;;5035874;28;20398;-89
2022/10/16 12:56:10;;;;;;;9.73;2.72;;;;;;;;;;5017621;28;20414;-80
2022/10/16 12:58:36;;;;;;;9.80;2.70;;;;;;;;;;5016916;28;20392;-80
2022/10/16 13:01:08;;;;;;;7.73;2.30;;;;;;;;;;5018037;28;20180;-80
2022/10/16 13:03:52;;;;;;;7.47;2.50;;;;;;;;;;5035485;28;20177;-80
2022/10/16 13:06:36;;;;;;;11.75;2.90;;;;;;;;;;5034506;28;20409;-80
2022/10/16 13:09:16;;;;;;;11.70;2.97;;;;;;;;;;5034401;28;20406;-80
2022/10/16 13:11:53;;;;;;;8.50;2.80;;;;;;;;;;5035546;28;20212;-79
2022/10/16 13:14:38;;;;;;;11.02;2.80;;;;;;;;;;5016589;28;20429;-78
2022/10/16 13:17:22;;;;;;;10.50;2.72;;;;;;;;;;5017304;28;20412;-78
2022/10/16 13:19:54;;;;;;;11.98;3.00;;;;;;;;;;5016439;28;20471;-77
2022/10/16 13:22:46;;;;;;;8.73;2.70;;;;;;;;;;5034065;28;20440;-78
2022/10/16 13:25:19;;;;;;;10.57;2.70;;;;;;;;;;4987320;28;20406;-78
2022/10/16 13:27:48;;;;;;;12.13;2.75;;;;;;;;;;5016811;28;20409;-78
2022/10/16 13:30:14;;;;;;;11.93;2.72;;;;;;;;;;5015639;28;20418;-78
2022/10/16 13:32:40;;;;;;;9.25;2.80;;;;;;;;;;5013283;28;20399;-78
2022/10/16 13:35:20;;;;;;;11.67;2.90;;;;;;;;;;4996910;28;20522;-78
2022/10/16 13:37:46;;;;;;;12.35;2.70;;;;;;;;;;5018587;28;20408;-78
2022/10/16 13:40:23;;;;;;;12.35;3.17;;;;;;;;;;5034060;28;20463;-78
2022/10/16 13:42:50;;;;;;;11.95;2.78;;;;;;;;;;5032792;28;20485;-78
2022/10/16 13:45:20;;;;;;;11.73;2.95;;;;;;;;;;5035299;28;20443;-80
2022/10/16 13:47:46;;;;;;;11.80;2.83;;;;;;;;;;5043147;28;20418;-80
2022/10/16 13:50:13;;;;;;;10.35;2.58;;;;;;;;;;5040462;28;20488;-80
2022/10/16 13:52:39;;;;;;;11.83;2.70;;;;;;;;;;5012849;28;20463;-80
2022/10/16 13:55:11;;;;;;;9.07;2.58;;;;;;;;;;5045184;28;20438;-80
2022/10/16 13:57:37;;;;;;;8.27;2.45;;;;;;;;;;5039891;28;20440;-80
2022/10/16 14:00:03;;;;;;;9.98;2.60;;;;;;;;;;5025913;28;20438;-80
2022/10/16 14:02:37;;;;;;;11.13;2.88;;;;;;;;;;5007243;28;20414;-78
2022/10/16 14:05:04;;;;;;;11.73;2.95;;;;;;;;;;5021052;28;20436;-78
2022/10/16 14:07:32;;;;;;;12.37;2.70;;;;;;;;;;5041959;28;20427;-78
2022/10/16 14:10:01;;;;;;;12.57;2.75;;;;;;;;;;5024106;28;20493;-78
2022/10/16 14:12:27;;;;;;;10.27;2.60;;;;;;;;;;5025820;28;20414;-77
2022/10/16 14:14:54;;;;;;;10.27;2.67;;;;;;;;;;5031498;28;20431;-77
2022/10/16 14:17:23;;;;;;;11.25;2.90;;;;;;;;;;5019279;28;20531;-81
2022/10/16 14:19:50;;;;;;;11.25;2.80;;;;;;;;;;5029638;28;20408;-82
2022/10/16 14:22:22;;;;;;;10.07;2.90;;;;;;;;;;5032882;28;20414;-82
2022/10/16 14:24:48;;;;;;;10.27;2.83;;;;;;;;;;5019957;28;20425;-82
2022/10/16 14:27:25;;;;;;;10.85;2.90;;;;;;;;;;5051102;28;20411;-82
2022/10/16 14:29:51;;;;;;;10.15;2.67;;;;;;;;;;5013806;28;20407;-82
2022/10/16 14:32:27;;;;;;;10.40;3.03;;;;;;;;;;4996659;28;20506;-82
2022/10/16 14:34:54;;;;;;;10.00;2.90;;;;;;;;;;5013482;28;20486;-82
2022/10/16 14:37:20;;;;;;;10.75;2.70;;;;;;;;;;4996198;28;20418;-82
2022/10/16 14:39:49;;;;;;;11.07;2.55;;;;;;;;;;4996678;28;20405;-82
2022/10/16 14:42:18;;;;;;;10.17;2.80;;;;;;;;;;4996190;28;20494;-82
2022/10/16 14:44:45;;;;;;;10.95;3.03;;;;;;;;;;4996813;28;20443;-82
2022/10/16 14:47:14;;;;;;;10.23;2.80;;;;;;;;;;4992863;28;20439;-82
2022/10/16 14:49:41;;;;;;;10.48;2.88;;;;;;;;;;5031871;28;20409;-82
2022/10/16 14:52:11;;;;;;;10.43;2.80;;;;;;;;;;5015473;28;20409;-78
2022/10/16 14:54:38;;;;;;;10.35;2.95;;;;;;;;;;5015547;28;20433;-78
2022/10/16 14:57:04;;;;;;;9.95;3.05;;;;;;;;;;5015167;28;20551;-78